sensor_id;sensor_type;location;lat;lon;timestamp;P1;durP1;ratioP1;P2;durP2;ratioP2
8542;SDS011;4309;42.658;23.380;2023-02-01T00:00:17;6.82;;;4.40;;
8542;SDS011;4309;42.658;23.380;2023-02-01T00:00:49;8.15;;;4.60;;
8542;SDS011;4309;42.658;23.380;2023-02-01T00:01:21;5.82;;;3.40;;
8542;SDS011;4309;42.658;23.380;2023-02-01T00:01:54;6.97;;;4.53;;
8542;SDS011;4309;42.658;23.380;2023-02-01T00:02:26;8.07;;;4.90;;
8542;SDS011;4309;42.658;23.380;2023-02-01T00:02:58;8.32;;;4.25;;
8542;SDS011;4309;42.658;23.380;2023-02-01T00:03:31;7.15;;;4.47;;
8542;SDS011;4309;42.658;23.380;2023-02-01T00:04:03;8.90;;;4.90;;
8542;SDS011;4309;42.658;23.380;2023-02-01T00:04:35;6.10;;;3.80;;
8542;SDS011;4309;42.658;23.380;2023-02-01T00:05:08;8.02;;;4.30;;
8542;SDS011;4309;42.658;23.380;2023-02-01T00:05:41;6.53;;;4.60;;
8542;SDS011;4309;42.658;23.380;2023-02-01T00:06:13;6.47;;;4.60;;
8542;SDS011;4309;42.658;23.380;2023-02-01T00:06:46;7.97;;;4.47;;
8542;SDS011;4309;42.658;23.380;2023-02-01T00:07:16;8.40;;;4.53;;
8542;SDS011;4309;42.658;23.380;2023-02-01T00:07:47;6.50;;;4.55;;
8542;SDS011;4309;42.658;23.380;2023-02-01T00:08:21;7.03;;;4.53;;
8542;SDS011;4309;42.658;23.380;2023-02-01T00:08:53;7.43;;;4.05;;
8542;SDS011;4309;42.658;23.380;2023-02-01T00:09:25;6.72;;;4.07;;
8542;SDS011;4309;42.658;23.380;2023-02-01T00:09:56;6.60;;;3.95;;
8542;SDS011;4309;42.658;23.380;2023-02-01T00:10:29;7.90;;;4.40;;
8542;SDS011;4309;42.658;23.380;2023-02-01T00:11:01;6.95;;;4.50;;
8542;SDS011;4309;42.658;23.380;2023-02-01T00:11:34;6.70;;;4.05;;
8542;SDS011;4309;42.658;23.380;2023-02-01T00:12:07;6.40;;;4.32;;
8542;SDS011;4309;42.658;23.380;2023-02-01T00:12:39;9.07;;;4.05;;
8542;SDS011;4309;42.658;23.380;2023-02-01T00:13:11;7.10;;;4.32;;
8542;SDS011;4309;42.658;23.380;2023-02-01T00:13:43;6.70;;;4.00;;
8542;SDS011;4309;42.658;23.380;2023-02-01T00:14:15;6.85;;;4.72;;
8542;SDS011;4309;42.658;23.380;2023-02-01T00:14:48;7.65;;;4.43;;
8542;SDS011;4309;42.658;23.380;2023-02-01T00:15:21;7.03;;;4.43;;
8542;SDS011;4309;42.658;23.380;2023-02-01T00:15:55;7.20;;;4.80;;
8542;SDS011;4309;42.658;23.380;2023-02-01T00:16:33;6.85;;;4.88;;
8542;SDS011;4309;42.658;23.380;2023-02-01T00:17:05;6.18;;;4.18;;
8542;SDS011;4309;42.658;23.380;2023-02-01T00:17:39;7.30;;;4.38;;
8542;SDS011;4309;42.658;23.380;2023-02-01T00:18:11;7.03;;;4.40;;
8542;SDS011;4309;42.658;23.380;2023-02-01T00:18:43;7.20;;;4.60;;
8542;SDS011;4309;42.658;23.380;2023-02-01T00:19:16;6.38;;;4.20;;
8542;SDS011;4309;42.658;23.380;2023-02-01T00:19:47;7.75;;;4.78;;
8542;SDS011;4309;42.658;23.380;2023-02-01T00:20:19;8.30;;;4.22;;
8542;SDS011;4309;42.658;23.380;2023-02-01T00:20:51;7.97;;;4.70;;
8542;SDS011;4309;42.658;23.380;2023-02-01T00:21:23;8.10;;;4.93;;
8542;SDS011;4309;42.658;23.380;2023-02-01T00:21:56;7.43;;;4.75;;
8542;SDS011;4309;42.658;23.380;2023-02-01T00:22:28;5.90;;;4.22;;
8542;SDS011;4309;42.658;23.380;2023-02-01T00:22:58;7.37;;;4.30;;
8542;SDS011;4309;42.658;23.380;2023-02-01T00:23:32;6.78;;;4.13;;
8542;SDS011;4309;42.658;23.380;2023-02-01T00:24:08;6.07;;;3.90;;
8542;SDS011;4309;42.658;23.380;2023-02-01T00:24:41;7.07;;;3.95;;
8542;SDS011;4309;42.658;23.380;2023-02-01T00:25:13;7.72;;;3.80;;
8542;SDS011;4309;42.658;23.380;2023-02-01T00:25:47;6.32;;;3.90;;
8542;SDS011;4309;42.658;23.380;2023-02-01T00:26:20;6.00;;;4.13;;
8542;SDS011;4309;42.658;23.380;2023-02-01T00:26:59;7.05;;;4.07;;
8542;SDS011;4309;42.658;23.380;2023-02-01T00:27:31;7.70;;;4.10;;
8542;SDS011;4309;42.658;23.380;2023-02-01T00:28:03;7.75;;;3.70;;
8542;SDS011;4309;42.658;23.380;2023-02-01T00:28:35;8.65;;;4.50;;
8542;SDS011;4309;42.658;23.380;2023-02-01T00:29:09;7.00;;;4.40;;
8542;SDS011;4309;42.658;23.380;2023-02-01T00:29:42;6.68;;;4.00;;
8542;SDS011;4309;42.658;23.380;2023-02-01T00:30:15;6.68;;;4.80;;
8542;SDS011;4309;42.658;23.380;2023-02-01T00:31:00;6.25;;;4.10;;
8542;SDS011;4309;42.658;23.380;2023-02-01T00:31:34;6.85;;;4.38;;
8542;SDS011;4309;42.658;23.380;2023-02-01T00:32:06;6.78;;;4.30;;
8542;SDS011;4309;42.658;23.380;2023-02-01T00:32:41;6.88;;;4.03;;
8542;SDS011;4309;42.658;23.380;2023-02-01T00:33:13;7.93;;;4.72;;
8542;SDS011;4309;42.658;23.380;2023-02-01T00:33:46;6.00;;;4.05;;
8542;SDS011;4309;42.658;23.380;2023-02-01T00:34:19;6.93;;;4.35;;
8542;SDS011;4309;42.658;23.380;2023-02-01T00:34:52;5.03;;;3.70;;
8542;SDS011;4309;42.658;23.380;2023-02-01T00:35:24;9.95;;;4.40;;
8542;SDS011;4309;42.658;23.380;2023-02-01T00:35:56;7.05;;;4.18;;
8542;SDS011;4309;42.658;23.380;2023-02-01T00:36:31;6.82;;;3.95;;
8542;SDS011;4309;42.658;23.380;2023-02-01T00:37:02;6.82;;;3.90;;
8542;SDS011;4309;42.658;23.380;2023-02-01T00:37:34;6.75;;;4.38;;
8542;SDS011;4309;42.658;23.380;2023-02-01T00:38:07;6.70;;;4.18;;
8542;SDS011;4309;42.658;23.380;2023-02-01T00:38:39;7.45;;;4.10;;
8542;SDS011;4309;42.658;23.380;2023-02-01T00:39:11;6.90;;;4.03;;
8542;SDS011;4309;42.658;23.380;2023-02-01T00:39:44;7.28;;;3.88;;
8542;SDS011;4309;42.658;23.380;2023-02-01T00:40:17;6.35;;;4.13;;
8542;SDS011;4309;42.658;23.380;2023-02-01T00:40:49;8.95;;;4.38;;
8542;SDS011;4309;42.658;23.380;2023-02-01T00:41:22;5.85;;;3.80;;
8542;SDS011;4309;42.658;23.380;2023-02-01T00:42:27;6.43;;;4.35;;
8542;SDS011;4309;42.658;23.380;2023-02-01T00:43:00;5.95;;;3.58;;
8542;SDS011;4309;42.658;23.380;2023-02-01T00:43:32;8.18;;;4.22;;
8542;SDS011;4309;42.658;23.380;2023-02-01T00:44:05;7.07;;;4.07;;
8542;SDS011;4309;42.658;23.380;2023-02-01T00:44:38;7.13;;;3.83;;
8542;SDS011;4309;42.658;23.380;2023-02-01T00:45:10;7.75;;;3.88;;
8542;SDS011;4309;42.658;23.380;2023-02-01T00:45:42;6.28;;;3.78;;
8542;SDS011;4309;42.658;23.380;2023-02-01T00:46:15;6.80;;;4.13;;
8542;SDS011;4309;42.658;23.380;2023-02-01T00:46:48;5.82;;;3.80;;
8542;SDS011;4309;42.658;23.380;2023-02-01T00:47:20;6.20;;;3.72;;
8542;SDS011;4309;42.658;23.380;2023-02-01T00:47:53;7.78;;;4.28;;
8542;SDS011;4309;42.658;23.380;2023-02-01T00:48:25;7.13;;;4.70;;
8542;SDS011;4309;42.658;23.380;2023-02-01T00:48:57;7.60;;;4.40;;
8542;SDS011;4309;42.658;23.380;2023-02-01T00:49:31;7.43;;;3.95;;
8542;SDS011;4309;42.658;23.380;2023-02-01T00:50:03;5.85;;;3.95;;
8542;SDS011;4309;42.658;23.380;2023-02-01T00:50:35;6.47;;;3.67;;
8542;SDS011;4309;42.658;23.380;2023-02-01T00:51:09;5.50;;;3.90;;
8542;SDS011;4309;42.658;23.380;2023-02-01T00:51:42;7.40;;;3.55;;
8542;SDS011;4309;42.658;23.380;2023-02-01T00:52:14;7.15;;;4.32;;
8542;SDS011;4309;42.658;23.380;2023-02-01T00:52:47;7.50;;;4.00;;
8542;SDS011;4309;42.658;23.380;2023-02-01T00:53:19;8.07;;;4.47;;
8542;SDS011;4309;42.658;23.380;2023-02-01T00:53:51;6.82;;;3.67;;
8542;SDS011;4309;42.658;23.380;2023-02-01T00:54:25;6.45;;;3.67;;
8542;SDS011;4309;42.658;23.380;2023-02-01T00:54:57;7.05;;;3.92;;
8542;SDS011;4309;42.658;23.380;2023-02-01T00:55:29;4.97;;;3.08;;
8542;SDS011;4309;42.658;23.380;2023-02-01T00:56:03;9.40;;;4.43;;
8542;SDS011;4309;42.658;23.380;2023-02-01T00:56:36;6.00;;;3.80;;
8542;SDS011;4309;42.658;23.380;2023-02-01T00:57:08;5.72;;;3.42;;
8542;SDS011;4309;42.658;23.380;2023-02-01T00:57:42;7.45;;;3.80;;
8542;SDS011;4309;42.658;23.380;2023-02-01T00:58:14;6.35;;;3.42;;
8542;SDS011;4309;42.658;23.380;2023-02-01T00:58:48;7.57;;;3.70;;
8542;SDS011;4309;42.658;23.380;2023-02-01T00:59:21;5.57;;;3.75;;
8542;SDS011;4309;42.658;23.380;2023-02-01T00:59:52;5.22;;;3.17;;
8542;SDS011;4309;42.658;23.380;2023-02-01T01:00:23;8.77;;;3.58;;
8542;SDS011;4309;42.658;23.380;2023-02-01T01:01:01;6.18;;;4.05;;
8542;SDS011;4309;42.658;23.380;2023-02-01T01:01:35;7.38;;;3.72;;
8542;SDS011;4309;42.658;23.380;2023-02-01T01:02:07;6.20;;;3.65;;
8542;SDS011;4309;42.658;23.380;2023-02-01T01:02:41;6.25;;;3.95;;
8542;SDS011;4309;42.658;23.380;2023-02-01T01:03:13;7.25;;;4.00;;
8542;SDS011;4309;42.658;23.380;2023-02-01T01:03:52;7.60;;;3.80;;
8542;SDS011;4309;42.658;23.380;2023-02-01T01:04:27;5.07;;;3.42;;
8542;SDS011;4309;42.658;23.380;2023-02-01T01:04:59;6.75;;;3.67;;
8542;SDS011;4309;42.658;23.380;2023-02-01T01:05:30;5.00;;;3.47;;
8542;SDS011;4309;42.658;23.380;2023-02-01T01:06:04;7.38;;;3.97;;
8542;SDS011;4309;42.658;23.380;2023-02-01T01:06:37;6.75;;;4.10;;
8542;SDS011;4309;42.658;23.380;2023-02-01T01:07:10;7.22;;;3.30;;
8542;SDS011;4309;42.658;23.380;2023-02-01T01:07:42;6.85;;;4.10;;
8542;SDS011;4309;42.658;23.380;2023-02-01T01:08:14;6.47;;;4.20;;
8542;SDS011;4309;42.658;23.380;2023-02-01T01:08:46;7.53;;;4.47;;
8542;SDS011;4309;42.658;23.380;2023-02-01T01:09:19;7.53;;;3.60;;
8542;SDS011;4309;42.658;23.380;2023-02-01T01:09:51;6.43;;;3.70;;
8542;SDS011;4309;42.658;23.380;2023-02-01T01:10:22;5.80;;;3.63;;
8542;SDS011;4309;42.658;23.380;2023-02-01T01:10:55;5.82;;;3.83;;
8542;SDS011;4309;42.658;23.380;2023-02-01T01:11:28;5.82;;;3.40;;
8542;SDS011;4309;42.658;23.380;2023-02-01T01:12:01;6.07;;;3.38;;
8542;SDS011;4309;42.658;23.380;2023-02-01T01:12:34;5.97;;;3.40;;
8542;SDS011;4309;42.658;23.380;2023-02-01T01:13:08;5.55;;;3.30;;
8542;SDS011;4309;42.658;23.380;2023-02-01T01:13:40;5.60;;;3.42;;
8542;SDS011;4309;42.658;23.380;2023-02-01T01:14:13;5.45;;;3.42;;
8542;SDS011;4309;42.658;23.380;2023-02-01T01:14:47;4.72;;;2.92;;
8542;SDS011;4309;42.658;23.380;2023-02-01T01:15:19;7.38;;;2.95;;
8542;SDS011;4309;42.658;23.380;2023-02-01T01:15:51;5.55;;;3.28;;
8542;SDS011;4309;42.658;23.380;2023-02-01T01:16:23;5.65;;;2.85;;
8542;SDS011;4309;42.658;23.380;2023-02-01T01:16:59;6.38;;;2.72;;
8542;SDS011;4309;42.658;23.380;2023-02-01T01:17:31;5.07;;;3.50;;
8542;SDS011;4309;42.658;23.380;2023-02-01T01:18:04;4.93;;;2.97;;
8542;SDS011;4309;42.658;23.380;2023-02-01T01:18:36;7.20;;;3.22;;
8542;SDS011;4309;42.658;23.380;2023-02-01T01:19:08;6.28;;;3.13;;
8542;SDS011;4309;42.658;23.380;2023-02-01T01:19:41;5.63;;;3.45;;
8542;SDS011;4309;42.658;23.380;2023-02-01T01:20:13;4.97;;;3.25;;
8542;SDS011;4309;42.658;23.380;2023-02-01T01:20:49;5.63;;;3.20;;
8542;SDS011;4309;42.658;23.380;2023-02-01T01:21:20;6.38;;;3.20;;
8542;SDS011;4309;42.658;23.380;2023-02-01T01:21:53;6.18;;;2.90;;
8542;SDS011;4309;42.658;23.380;2023-02-01T01:22:24;6.75;;;3.60;;
8542;SDS011;4309;42.658;23.380;2023-02-01T01:22:56;5.55;;;2.90;;
8542;SDS011;4309;42.658;23.380;2023-02-01T01:23:28;6.57;;;3.40;;
8542;SDS011;4309;42.658;23.380;2023-02-01T01:24:01;6.03;;;3.15;;
8542;SDS011;4309;42.658;23.380;2023-02-01T01:24:33;6.75;;;3.40;;
8542;SDS011;4309;42.658;23.380;2023-02-01T01:25:05;7.53;;;3.30;;
8542;SDS011;4309;42.658;23.380;2023-02-01T01:25:39;7.82;;;3.10;;
8542;SDS011;4309;42.658;23.380;2023-02-01T01:26:12;5.85;;;3.42;;
8542;SDS011;4309;42.658;23.380;2023-02-01T01:26:45;6.25;;;3.05;;
8542;SDS011;4309;42.658;23.380;2023-02-01T01:27:16;5.57;;;3.05;;
8542;SDS011;4309;42.658;23.380;2023-02-01T01:27:52;5.15;;;3.05;;
8542;SDS011;4309;42.658;23.380;2023-02-01T01:28:27;5.83;;;3.20;;
8542;SDS011;4309;42.658;23.380;2023-02-01T01:28:58;5.07;;;3.22;;
8542;SDS011;4309;42.658;23.380;2023-02-01T01:29:30;5.38;;;3.08;;
8542;SDS011;4309;42.658;23.380;2023-02-01T01:30:01;6.43;;;3.10;;
8542;SDS011;4309;42.658;23.380;2023-02-01T01:30:33;5.45;;;3.22;;
8542;SDS011;4309;42.658;23.380;2023-02-01T01:31:08;6.32;;;3.20;;
8542;SDS011;4309;42.658;23.380;2023-02-01T01:31:40;6.93;;;2.53;;
8542;SDS011;4309;42.658;23.380;2023-02-01T01:32:11;6.40;;;2.90;;
8542;SDS011;4309;42.658;23.380;2023-02-01T01:32:42;5.88;;;2.95;;
8542;SDS011;4309;42.658;23.380;2023-02-01T01:33:13;6.18;;;2.85;;
8542;SDS011;4309;42.658;23.380;2023-02-01T01:33:44;5.03;;;2.97;;
8542;SDS011;4309;42.658;23.380;2023-02-01T01:34:18;7.82;;;3.30;;
8542;SDS011;4309;42.658;23.380;2023-02-01T01:34:49;5.88;;;2.97;;
8542;SDS011;4309;42.658;23.380;2023-02-01T01:35:20;6.15;;;3.53;;
8542;SDS011;4309;42.658;23.380;2023-02-01T01:35:53;4.40;;;3.10;;
8542;SDS011;4309;42.658;23.380;2023-02-01T01:36:26;4.90;;;2.58;;
8542;SDS011;4309;42.658;23.380;2023-02-01T01:36:58;5.95;;;2.78;;
8542;SDS011;4309;42.658;23.380;2023-02-01T01:37:33;4.78;;;2.97;;
8542;SDS011;4309;42.658;23.380;2023-02-01T01:38:05;4.90;;;3.05;;
8542;SDS011;4309;42.658;23.380;2023-02-01T01:38:36;4.97;;;2.70;;
8542;SDS011;4309;42.658;23.380;2023-02-01T01:39:07;4.57;;;2.50;;
8542;SDS011;4309;42.658;23.380;2023-02-01T01:39:39;5.75;;;2.63;;
8542;SDS011;4309;42.658;23.380;2023-02-01T01:40:10;5.80;;;2.63;;
8542;SDS011;4309;42.658;23.380;2023-02-01T01:40:44;4.35;;;2.55;;
8542;SDS011;4309;42.658;23.380;2023-02-01T01:41:22;5.88;;;2.40;;
8542;SDS011;4309;42.658;23.380;2023-02-01T01:41:55;7.40;;;2.90;;
8542;SDS011;4309;42.658;23.380;2023-02-01T01:42:28;5.13;;;3.25;;
8542;SDS011;4309;42.658;23.380;2023-02-01T01:42:59;4.70;;;2.72;;
8542;SDS011;4309;42.658;23.380;2023-02-01T01:43:45;6.97;;;3.28;;
8542;SDS011;4309;42.658;23.380;2023-02-01T01:45:28;5.40;;;2.75;;
8542;SDS011;4309;42.658;23.380;2023-02-01T01:46:01;5.40;;;3.25;;
8542;SDS011;4309;42.658;23.380;2023-02-01T01:46:36;7.88;;;3.30;;
8542;SDS011;4309;42.658;23.380;2023-02-01T01:47:07;6.75;;;2.78;;
8542;SDS011;4309;42.658;23.380;2023-02-01T01:47:41;5.82;;;2.60;;
8542;SDS011;4309;42.658;23.380;2023-02-01T01:48:22;4.28;;;2.70;;
8542;SDS011;4309;42.658;23.380;2023-02-01T01:49:01;5.95;;;2.65;;
8542;SDS011;4309;42.658;23.380;2023-02-01T01:49:36;5.28;;;2.80;;
8542;SDS011;4309;42.658;23.380;2023-02-01T01:50:09;5.05;;;2.65;;
8542;SDS011;4309;42.658;23.380;2023-02-01T01:50:47;5.95;;;2.20;;
8542;SDS011;4309;42.658;23.380;2023-02-01T01:51:23;6.68;;;2.83;;
8542;SDS011;4309;42.658;23.380;2023-02-01T01:51:58;5.60;;;2.50;;
8542;SDS011;4309;42.658;23.380;2023-02-01T01:52:31;7.65;;;2.25;;
8542;SDS011;4309;42.658;23.380;2023-02-01T01:53:06;3.90;;;2.20;;
8542;SDS011;4309;42.658;23.380;2023-02-01T01:53:43;4.68;;;2.20;;
8542;SDS011;4309;42.658;23.380;2023-02-01T01:54:18;5.05;;;2.55;;
8542;SDS011;4309;42.658;23.380;2023-02-01T01:54:55;5.00;;;2.35;;
8542;SDS011;4309;42.658;23.380;2023-02-01T01:55:30;4.95;;;2.60;;
8542;SDS011;4309;42.658;23.380;2023-02-01T01:56:05;4.28;;;2.30;;
8542;SDS011;4309;42.658;23.380;2023-02-01T01:56:38;4.28;;;2.13;;
8542;SDS011;4309;42.658;23.380;2023-02-01T01:57:16;4.30;;;2.75;;
8542;SDS011;4309;42.658;23.380;2023-02-01T01:57:54;4.32;;;2.40;;
8542;SDS011;4309;42.658;23.380;2023-02-01T01:58:32;5.03;;;2.55;;
8542;SDS011;4309;42.658;23.380;2023-02-01T01:59:12;5.68;;;2.10;;
8542;SDS011;4309;42.658;23.380;2023-02-01T01:59:46;5.47;;;2.38;;
8542;SDS011;4309;42.658;23.380;2023-02-01T02:00:20;4.63;;;2.53;;
8542;SDS011;4309;42.658;23.380;2023-02-01T02:00:52;5.50;;;2.92;;
8542;SDS011;4309;42.658;23.380;2023-02-01T02:01:25;5.32;;;3.00;;
8542;SDS011;4309;42.658;23.380;2023-02-01T02:01:59;5.20;;;2.70;;
8542;SDS011;4309;42.658;23.380;2023-02-01T02:02:31;6.65;;;2.70;;
8542;SDS011;4309;42.658;23.380;2023-02-01T02:03:03;7.53;;;3.20;;
8542;SDS011;4309;42.658;23.380;2023-02-01T02:03:40;6.82;;;2.80;;
8542;SDS011;4309;42.658;23.380;2023-02-01T02:04:23;9.40;;;2.67;;
8542;SDS011;4309;42.658;23.380;2023-02-01T02:04:56;5.30;;;3.15;;
8542;SDS011;4309;42.658;23.380;2023-02-01T02:05:28;6.55;;;2.75;;
8542;SDS011;4309;42.658;23.380;2023-02-01T02:06:02;6.07;;;3.28;;
8542;SDS011;4309;42.658;23.380;2023-02-01T02:06:42;5.40;;;2.40;;
8542;SDS011;4309;42.658;23.380;2023-02-01T02:07:19;5.63;;;2.78;;
8542;SDS011;4309;42.658;23.380;2023-02-01T02:07:56;5.05;;;2.83;;
8542;SDS011;4309;42.658;23.380;2023-02-01T02:08:29;6.15;;;2.60;;
8542;SDS011;4309;42.658;23.380;2023-02-01T02:09:02;5.18;;;2.80;;
8542;SDS011;4309;42.658;23.380;2023-02-01T02:09:34;5.85;;;2.63;;
8542;SDS011;4309;42.658;23.380;2023-02-01T02:10:06;5.05;;;3.13;;
8542;SDS011;4309;42.658;23.380;2023-02-01T02:10:42;7.05;;;3.25;;
8542;SDS011;4309;42.658;23.380;2023-02-01T02:11:32;5.40;;;2.45;;
8542;SDS011;4309;42.658;23.380;2023-02-01T02:12:06;9.40;;;3.13;;
8542;SDS011;4309;42.658;23.380;2023-02-01T02:12:38;6.80;;;2.90;;
8542;SDS011;4309;42.658;23.380;2023-02-01T02:13:13;6.50;;;2.97;;
8542;SDS011;4309;42.658;23.380;2023-02-01T02:13:48;6.07;;;2.95;;
8542;SDS011;4309;42.658;23.380;2023-02-01T02:14:23;6.22;;;2.60;;
8542;SDS011;4309;42.658;23.380;2023-02-01T02:14:55;7.30;;;2.70;;
8542;SDS011;4309;42.658;23.380;2023-02-01T02:15:26;5.45;;;2.95;;
8542;SDS011;4309;42.658;23.380;2023-02-01T02:16:07;5.10;;;2.65;;
8542;SDS011;4309;42.658;23.380;2023-02-01T02:18:01;5.70;;;2.55;;
8542;SDS011;4309;42.658;23.380;2023-02-01T02:18:41;7.43;;;3.00;;
8542;SDS011;4309;42.658;23.380;2023-02-01T02:20:31;4.30;;;2.40;;
8542;SDS011;4309;42.658;23.380;2023-02-01T02:21:17;7.85;;;2.88;;
8542;SDS011;4309;42.658;23.380;2023-02-01T02:22:14;5.35;;;2.70;;
8542;SDS011;4309;42.658;23.380;2023-02-01T02:24:36;5.07;;;2.63;;
8542;SDS011;4309;42.658;23.380;2023-02-01T02:25:23;7.60;;;2.65;;
8542;SDS011;4309;42.658;23.380;2023-02-01T02:27:28;7.05;;;2.55;;
8542;SDS011;4309;42.658;23.380;2023-02-01T02:28:24;4.88;;;2.67;;
8542;SDS011;4309;42.658;23.380;2023-02-01T02:29:31;4.97;;;2.80;;
8542;SDS011;4309;42.658;23.380;2023-02-01T02:32:02;6.35;;;2.60;;
8542;SDS011;4309;42.658;23.380;2023-02-01T02:34:02;4.63;;;2.38;;
8542;SDS011;4309;42.658;23.380;2023-02-01T02:34:47;5.05;;;3.00;;
8542;SDS011;4309;42.658;23.380;2023-02-01T02:35:26;5.97;;;2.55;;
8542;SDS011;4309;42.658;23.380;2023-02-01T02:36:06;6.43;;;2.30;;
8542;SDS011;4309;42.658;23.380;2023-02-01T02:36:48;5.15;;;2.50;;
8542;SDS011;4309;42.658;23.380;2023-02-01T02:37:30;7.00;;;3.25;;
8542;SDS011;4309;42.658;23.380;2023-02-01T02:38:12;5.25;;;2.70;;
8542;SDS011;4309;42.658;23.380;2023-02-01T02:38:50;5.13;;;2.85;;
8542;SDS011;4309;42.658;23.380;2023-02-01T02:39:34;4.63;;;2.60;;
8542;SDS011;4309;42.658;23.380;2023-02-01T02:40:14;4.60;;;2.50;;
8542;SDS011;4309;42.658;23.380;2023-02-01T02:40:57;4.55;;;2.50;;
8542;SDS011;4309;42.658;23.380;2023-02-01T02:41:39;7.80;;;3.13;;
8542;SDS011;4309;42.658;23.380;2023-02-01T02:42:38;5.88;;;3.10;;
8542;SDS011;4309;42.658;23.380;2023-02-01T02:43:35;4.45;;;2.15;;
8542;SDS011;4309;42.658;23.380;2023-02-01T02:44:34;6.35;;;2.53;;
8542;SDS011;4309;42.658;23.380;2023-02-01T02:45:34;4.72;;;2.72;;
8542;SDS011;4309;42.658;23.380;2023-02-01T02:46:31;5.28;;;2.38;;
8542;SDS011;4309;42.658;23.380;2023-02-01T02:47:27;5.68;;;2.58;;
8542;SDS011;4309;42.658;23.380;2023-02-01T02:48:10;4.07;;;2.38;;
8542;SDS011;4309;42.658;23.380;2023-02-01T02:48:47;4.43;;;2.40;;
8542;SDS011;4309;42.658;23.380;2023-02-01T02:49:25;8.15;;;2.95;;
8542;SDS011;4309;42.658;23.380;2023-02-01T02:50:11;6.13;;;3.03;;
8542;SDS011;4309;42.658;23.380;2023-02-01T02:51:07;4.57;;;2.03;;
8542;SDS011;4309;42.658;23.380;2023-02-01T02:52:02;4.38;;;2.40;;
8542;SDS011;4309;42.658;23.380;2023-02-01T02:53:00;5.68;;;2.33;;
8542;SDS011;4309;42.658;23.380;2023-02-01T02:53:56;5.03;;;2.10;;
8542;SDS011;4309;42.658;23.380;2023-02-01T02:54:51;4.78;;;2.35;;
8542;SDS011;4309;42.658;23.380;2023-02-01T02:55:26;5.40;;;1.85;;
8542;SDS011;4309;42.658;23.380;2023-02-01T02:56:01;6.88;;;2.42;;
8542;SDS011;4309;42.658;23.380;2023-02-01T02:56:55;4.85;;;2.40;;
8542;SDS011;4309;42.658;23.380;2023-02-01T02:57:48;5.43;;;2.33;;
8542;SDS011;4309;42.658;23.380;2023-02-01T02:58:40;6.38;;;2.60;;
8542;SDS011;4309;42.658;23.380;2023-02-01T02:59:32;6.32;;;2.80;;
8542;SDS011;4309;42.658;23.380;2023-02-01T03:00:27;5.55;;;2.95;;
8542;SDS011;4309;42.658;23.380;2023-02-01T03:01:20;8.02;;;2.33;;
8542;SDS011;4309;42.658;23.380;2023-02-01T03:02:10;8.15;;;2.90;;
8542;SDS011;4309;42.658;23.380;2023-02-01T03:03:02;3.92;;;2.10;;
8542;SDS011;4309;42.658;23.380;2023-02-01T03:03:52;6.25;;;2.20;;
8542;SDS011;4309;42.658;23.380;2023-02-01T03:04:44;7.00;;;2.55;;
8542;SDS011;4309;42.658;23.380;2023-02-01T03:05:16;4.30;;;2.40;;
8542;SDS011;4309;42.658;23.380;2023-02-01T03:05:47;5.72;;;2.33;;
8542;SDS011;4309;42.658;23.380;2023-02-01T03:06:22;6.28;;;2.45;;
8542;SDS011;4309;42.658;23.380;2023-02-01T03:06:56;7.80;;;3.10;;
8542;SDS011;4309;42.658;23.380;2023-02-01T03:07:49;4.30;;;1.98;;
8542;SDS011;4309;42.658;23.380;2023-02-01T03:08:28;4.68;;;2.38;;
8542;SDS011;4309;42.658;23.380;2023-02-01T03:09:03;6.55;;;2.53;;
8542;SDS011;4309;42.658;23.380;2023-02-01T03:09:40;5.68;;;2.40;;
8542;SDS011;4309;42.658;23.380;2023-02-01T03:10:19;5.55;;;2.40;;
8542;SDS011;4309;42.658;23.380;2023-02-01T03:10:56;6.45;;;2.97;;
8542;SDS011;4309;42.658;23.380;2023-02-01T03:11:31;5.25;;;2.22;;
8542;SDS011;4309;42.658;23.380;2023-02-01T03:12:19;6.32;;;2.30;;
8542;SDS011;4309;42.658;23.380;2023-02-01T03:13:11;4.80;;;2.30;;
8542;SDS011;4309;42.658;23.380;2023-02-01T03:13:49;6.28;;;2.30;;
8542;SDS011;4309;42.658;23.380;2023-02-01T03:14:24;5.18;;;2.03;;
8542;SDS011;4309;42.658;23.380;2023-02-01T03:15:03;7.10;;;2.58;;
8542;SDS011;4309;42.658;23.380;2023-02-01T03:15:42;5.70;;;2.60;;
8542;SDS011;4309;42.658;23.380;2023-02-01T03:16:22;4.72;;;2.20;;
8542;SDS011;4309;42.658;23.380;2023-02-01T03:16:58;5.00;;;1.90;;
8542;SDS011;4309;42.658;23.380;2023-02-01T03:17:40;5.18;;;2.90;;
8542;SDS011;4309;42.658;23.380;2023-02-01T03:18:16;4.55;;;2.08;;
8542;SDS011;4309;42.658;23.380;2023-02-01T03:18:53;3.47;;;1.30;;
8542;SDS011;4309;42.658;23.380;2023-02-01T03:19:32;5.25;;;2.30;;
8542;SDS011;4309;42.658;23.380;2023-02-01T03:20:09;5.88;;;2.58;;
8542;SDS011;4309;42.658;23.380;2023-02-01T03:20:45;4.72;;;2.20;;
8542;SDS011;4309;42.658;23.380;2023-02-01T03:21:23;3.65;;;2.13;;
8542;SDS011;4309;42.658;23.380;2023-02-01T03:21:58;4.43;;;2.40;;
8542;SDS011;4309;42.658;23.380;2023-02-01T03:22:33;4.53;;;2.20;;
8542;SDS011;4309;42.658;23.380;2023-02-01T03:23:10;4.50;;;2.22;;
8542;SDS011;4309;42.658;23.380;2023-02-01T03:23:46;4.75;;;1.98;;
8542;SDS011;4309;42.658;23.380;2023-02-01T03:24:20;3.83;;;2.13;;
8542;SDS011;4309;42.658;23.380;2023-02-01T03:25:05;3.85;;;2.15;;
8542;SDS011;4309;42.658;23.380;2023-02-01T03:25:43;4.50;;;2.15;;
8542;SDS011;4309;42.658;23.380;2023-02-01T03:26:18;4.85;;;2.40;;
8542;SDS011;4309;42.658;23.380;2023-02-01T03:26:53;4.72;;;2.30;;
8542;SDS011;4309;42.658;23.380;2023-02-01T03:27:31;4.40;;;2.33;;
8542;SDS011;4309;42.658;23.380;2023-02-01T03:28:07;5.50;;;2.40;;
8542;SDS011;4309;42.658;23.380;2023-02-01T03:28:42;5.15;;;2.20;;
8542;SDS011;4309;42.658;23.380;2023-02-01T03:29:17;3.33;;;1.60;;
8542;SDS011;4309;42.658;23.380;2023-02-01T03:29:54;6.68;;;2.65;;
8542;SDS011;4309;42.658;23.380;2023-02-01T03:30:31;5.10;;;2.17;;
8542;SDS011;4309;42.658;23.380;2023-02-01T03:31:07;7.07;;;2.20;;
8542;SDS011;4309;42.658;23.380;2023-02-01T03:31:40;5.93;;;2.33;;
8542;SDS011;4309;42.658;23.380;2023-02-01T03:32:12;5.05;;;2.30;;
8542;SDS011;4309;42.658;23.380;2023-02-01T03:32:49;4.78;;;2.05;;
8542;SDS011;4309;42.658;23.380;2023-02-01T03:33:32;5.50;;;2.35;;
8542;SDS011;4309;42.658;23.380;2023-02-01T03:34:07;5.40;;;2.20;;
8542;SDS011;4309;42.658;23.380;2023-02-01T03:34:40;4.60;;;2.30;;
8542;SDS011;4309;42.658;23.380;2023-02-01T03:35:25;4.38;;;2.25;;
8542;SDS011;4309;42.658;23.380;2023-02-01T03:36:56;5.32;;;2.40;;
8542;SDS011;4309;42.658;23.380;2023-02-01T03:37:31;4.70;;;2.63;;
8542;SDS011;4309;42.658;23.380;2023-02-01T03:38:04;5.05;;;2.55;;
8542;SDS011;4309;42.658;23.380;2023-02-01T03:38:46;5.90;;;2.40;;
8542;SDS011;4309;42.658;23.380;2023-02-01T03:39:24;6.20;;;1.88;;
8542;SDS011;4309;42.658;23.380;2023-02-01T03:40:04;5.57;;;2.20;;
8542;SDS011;4309;42.658;23.380;2023-02-01T03:40:39;4.60;;;1.95;;
8542;SDS011;4309;42.658;23.380;2023-02-01T03:41:17;3.75;;;2.15;;
8542;SDS011;4309;42.658;23.380;2023-02-01T03:41:55;7.88;;;2.30;;
8542;SDS011;4309;42.658;23.380;2023-02-01T03:42:31;4.43;;;2.22;;
8542;SDS011;4309;42.658;23.380;2023-02-01T03:43:09;6.53;;;2.08;;
8542;SDS011;4309;42.658;23.380;2023-02-01T03:43:49;6.25;;;2.42;;
8542;SDS011;4309;42.658;23.380;2023-02-01T03:44:26;4.07;;;2.35;;
8542;SDS011;4309;42.658;23.380;2023-02-01T03:45:05;4.85;;;2.50;;
8542;SDS011;4309;42.658;23.380;2023-02-01T03:45:44;4.10;;;2.08;;
8542;SDS011;4309;42.658;23.380;2023-02-01T03:46:23;6.88;;;2.42;;
8542;SDS011;4309;42.658;23.380;2023-02-01T03:47:04;5.03;;;2.47;;
8542;SDS011;4309;42.658;23.380;2023-02-01T03:47:41;6.07;;;2.67;;
8542;SDS011;4309;42.658;23.380;2023-02-01T03:48:18;4.95;;;2.00;;
8542;SDS011;4309;42.658;23.380;2023-02-01T03:48:52;6.55;;;2.17;;
8542;SDS011;4309;42.658;23.380;2023-02-01T03:49:26;5.22;;;1.90;;
8542;SDS011;4309;42.658;23.380;2023-02-01T03:50:02;5.18;;;2.22;;
8542;SDS011;4309;42.658;23.380;2023-02-01T03:50:38;6.28;;;2.50;;
8542;SDS011;4309;42.658;23.380;2023-02-01T03:51:14;4.22;;;1.95;;
8542;SDS011;4309;42.658;23.380;2023-02-01T03:51:48;4.50;;;2.15;;
8542;SDS011;4309;42.658;23.380;2023-02-01T03:52:23;5.13;;;2.20;;